createdAt,value
2023-08-15T00:02:23.985Z,17.41
2023-08-15T00:04:50.547Z,17.37
2023-08-15T00:07:17.183Z,17.35
2023-08-15T00:09:43.687Z,17.33
2023-08-15T00:12:10.208Z,17.20
2023-08-15T00:14:36.827Z,18.48
2023-08-15T00:17:03.379Z,18.82
2023-08-15T00:19:30.027Z,18.51
2023-08-15T00:21:56.588Z,18.52
2023-08-15T00:24:23.179Z,18.58
2023-08-15T00:26:49.716Z,18.70
2023-08-15T00:29:16.278Z,18.85
2023-08-15T00:31:42.814Z,18.99
2023-08-15T00:34:09.307Z,18.93
2023-08-15T00:36:35.885Z,18.54
2023-08-15T00:39:04.114Z,18.07
2023-08-15T00:41:31.102Z,17.95
2023-08-15T00:43:59.466Z,17.78
2023-08-15T00:46:26.788Z,17.64
2023-08-15T00:48:53.319Z,17.59
2023-08-15T00:51:19.819Z,17.53
2023-08-15T00:53:46.349Z,17.43
2023-08-15T00:56:12.892Z,17.38
2023-08-15T00:58:39.445Z,17.73
2023-08-15T01:01:06.016Z,18.88
2023-08-15T01:03:32.655Z,18.39
2023-08-15T01:05:59.306Z,18.43
2023-08-15T01:08:25.879Z,18.56
2023-08-15T01:10:52.446Z,18.73
2023-08-15T01:13:21.198Z,18.97
2023-08-15T01:15:49.533Z,18.96
2023-08-15T01:18:25.221Z,18.49
2023-08-15T01:20:52.066Z,18.01
2023-08-15T01:23:19.288Z,17.95
2023-08-15T01:25:45.831Z,17.76
2023-08-15T01:28:12.919Z,17.72
2023-08-15T01:30:50.916Z,17.60
2023-08-15T01:33:20.552Z,17.53
2023-08-15T01:35:47.917Z,17.43
2023-08-15T01:38:18.391Z,17.36
2023-08-15T01:40:44.973Z,17.31
2023-08-15T01:43:11.593Z,17.30
2023-08-15T01:45:38.176Z,19.10
2023-08-15T01:48:04.966Z,19.05
2023-08-15T01:50:31.662Z,18.54
2023-08-15T01:52:58.263Z,18.63
2023-08-15T01:55:24.803Z,18.76
2023-08-15T01:57:51.319Z,18.95
2023-08-15T02:00:17.948Z,19.09
2023-08-15T02:02:44.525Z,19.08
2023-08-15T02:05:13.569Z,18.62
2023-08-15T02:07:40.505Z,18.16
2023-08-15T02:10:07.147Z,17.97
2023-08-15T02:12:33.703Z,17.85
2023-08-15T02:15:00.216Z,17.76
2023-08-15T02:17:26.743Z,17.68
2023-08-15T02:19:53.305Z,17.59
2023-08-15T02:22:19.848Z,17.54
2023-08-15T02:24:46.414Z,17.45
2023-08-15T02:27:13.000Z,17.36
2023-08-15T02:29:39.594Z,17.30
2023-08-15T02:32:06.176Z,18.42
2023-08-15T02:34:32.789Z,19.59
2023-08-15T02:36:59.344Z,18.60
2023-08-15T02:39:28.491Z,18.58
2023-08-15T02:41:55.049Z,18.68
2023-08-15T02:44:21.581Z,18.86
2023-08-15T02:46:48.133Z,19.05
2023-08-15T02:49:14.769Z,19.23
2023-08-15T02:51:41.318Z,18.74
2023-08-15T02:54:07.825Z,18.26
2023-08-15T02:56:34.481Z,17.97
2023-08-15T02:59:00.979Z,17.85
2023-08-15T03:01:27.601Z,17.75
2023-08-15T03:03:54.191Z,17.69
2023-08-15T03:06:20.841Z,17.59
2023-08-15T03:08:47.888Z,17.52
2023-08-15T03:11:14.481Z,17.45
2023-08-15T03:13:41.023Z,17.35
2023-08-15T03:16:07.603Z,17.32
2023-08-15T03:18:34.271Z,17.24
2023-08-15T03:21:02.703Z,18.25
2023-08-15T03:23:29.333Z,19.44
2023-08-15T03:25:59.212Z,18.67
2023-08-15T03:28:25.814Z,18.55
2023-08-15T03:30:52.560Z,18.68
2023-08-15T03:33:19.297Z,18.87
2023-08-15T03:35:49.831Z,19.09
2023-08-15T03:38:19.754Z,19.25
2023-08-15T03:40:47.413Z,18.80
2023-08-15T03:43:14.109Z,18.23
2023-08-15T03:45:40.865Z,17.99
2023-08-15T03:48:07.980Z,17.85
2023-08-15T03:50:37.835Z,17.79
2023-08-15T03:53:04.472Z,17.63
2023-08-15T03:55:31.087Z,17.55
2023-08-15T03:57:57.754Z,17.51
2023-08-15T04:00:24.461Z,17.41
2023-08-15T04:02:51.141Z,17.36
2023-08-15T04:05:19.013Z,18.30
2023-08-15T04:07:45.588Z,18.52
2023-08-15T04:10:14.839Z,18.41
2023-08-15T04:12:41.742Z,18.49
2023-08-15T04:15:08.317Z,18.74
2023-08-15T04:17:34.833Z,18.94
2023-08-15T04:20:01.487Z,19.18
2023-08-15T04:22:27.989Z,18.98
2023-08-15T04:24:54.484Z,18.44
2023-08-15T04:27:21.368Z,17.99
2023-08-15T04:29:48.123Z,17.87
2023-08-15T04:32:14.627Z,17.77
2023-08-15T04:34:41.141Z,17.68
2023-08-15T04:37:07.642Z,17.58
2023-08-15T04:39:34.818Z,17.54
2023-08-15T04:42:01.305Z,17.46
2023-08-15T04:44:27.829Z,17.41
2023-08-15T04:46:54.424Z,17.33
2023-08-15T04:49:20.961Z,17.25
2023-08-15T04:51:47.511Z,18.41
2023-08-15T04:54:14.025Z,19.54
2023-08-15T04:56:40.712Z,18.60
2023-08-15T04:59:07.514Z,18.58
2023-08-15T05:01:34.015Z,18.71
2023-08-15T05:04:00.660Z,18.95
2023-08-15T05:06:27.196Z,19.18
2023-08-15T05:08:53.676Z,19.36
2023-08-15T05:11:20.244Z,18.83
2023-08-15T05:13:46.822Z,18.22
2023-08-15T05:16:13.347Z,17.99
2023-08-15T05:18:39.946Z,17.81
2023-08-15T05:21:06.530Z,17.71
2023-08-15T05:23:33.101Z,17.62
2023-08-15T05:25:59.609Z,17.52
2023-08-15T05:28:26.193Z,17.41
2023-08-15T05:30:52.734Z,17.38
2023-08-15T05:33:19.280Z,17.28
2023-08-15T05:35:45.774Z,18.81
2023-08-15T05:38:12.320Z,18.85
2023-08-15T05:40:40.468Z,18.51
2023-08-15T05:43:07.148Z,18.67
2023-08-15T05:45:34.046Z,18.87
2023-08-15T05:48:00.950Z,19.09
2023-08-15T05:50:27.536Z,19.31
2023-08-15T05:52:54.053Z,19.17
2023-08-15T05:55:20.607Z,18.47
2023-08-15T05:57:47.151Z,18.06
2023-08-15T06:00:13.932Z,18.01
2023-08-15T06:02:40.748Z,17.85
2023-08-15T06:05:08.228Z,17.69
2023-08-15T06:07:34.825Z,17.56
2023-08-15T06:10:01.496Z,17.51
2023-08-15T06:12:28.035Z,17.46
2023-08-15T06:14:54.567Z,17.36
2023-08-15T06:17:21.343Z,17.86
2023-08-15T06:19:47.984Z,19.34
2023-08-15T06:22:16.382Z,18.55
2023-08-15T06:24:42.970Z,18.59
2023-08-15T06:27:09.506Z,18.75
2023-08-15T06:29:36.093Z,19.02
2023-08-15T06:32:02.606Z,19.21
2023-08-15T06:34:29.245Z,19.34
2023-08-15T06:36:55.903Z,18.78
2023-08-15T06:39:22.516Z,18.19
2023-08-15T06:41:49.107Z,17.91
2023-08-15T06:44:15.738Z,17.81
2023-08-15T06:46:42.359Z,17.68
2023-08-15T06:49:08.914Z,17.59
2023-08-15T06:51:35.489Z,17.51
2023-08-15T06:54:02.051Z,17.50
2023-08-15T06:56:28.581Z,17.35
2023-08-15T06:58:55.128Z,17.29
2023-08-15T07:01:21.753Z,17.75
2023-08-15T07:03:48.579Z,19.31
2023-08-15T07:06:15.254Z,18.49
2023-08-15T07:08:42.257Z,18.54
2023-08-15T07:11:08.848Z,18.71
2023-08-15T07:13:35.492Z,18.97
2023-08-15T07:16:02.096Z,19.17
2023-08-15T07:18:28.754Z,19.33
2023-08-15T07:20:55.380Z,18.77
2023-08-15T07:23:21.973Z,18.30
2023-08-15T07:25:48.712Z,18.16
2023-08-15T07:28:15.305Z,17.89
2023-08-15T07:30:43.246Z,17.93
2023-08-15T07:33:09.801Z,17.73
2023-08-15T07:35:36.360Z,17.61
2023-08-15T07:38:03.620Z,17.50
2023-08-15T07:40:30.304Z,17.42
2023-08-15T07:42:57.244Z,17.35
2023-08-15T07:45:23.811Z,17.28
2023-08-15T07:47:53.085Z,17.19
2023-08-15T07:50:20.249Z,18.64
2023-08-15T07:52:46.932Z,19.03
2023-08-15T07:55:13.562Z,18.48
2023-08-15T07:57:40.425Z,18.59
2023-08-15T08:00:08.325Z,18.74
2023-08-15T08:02:34.875Z,18.97
2023-08-15T08:05:01.546Z,19.21
2023-08-15T08:07:28.260Z,19.19
2023-08-15T08:09:55.048Z,18.55
2023-08-15T08:12:21.888Z,18.05
2023-08-15T08:14:57.086Z,17.87
2023-08-15T08:17:24.063Z,17.69
2023-08-15T08:19:50.628Z,17.57
2023-08-15T08:22:17.175Z,17.58
2023-08-15T08:24:43.712Z,17.51
2023-08-15T08:27:10.420Z,17.43
2023-08-15T08:29:36.985Z,17.39
2023-08-15T08:32:03.717Z,17.35
2023-08-15T08:34:30.250Z,17.29
2023-08-15T08:36:56.798Z,17.19
2023-08-15T08:39:31.854Z,18.25
2023-08-15T08:41:59.511Z,19.15
2023-08-15T08:44:26.336Z,18.47
2023-08-15T08:46:52.889Z,18.60
2023-08-15T08:49:19.482Z,18.77
2023-08-15T08:51:46.078Z,18.98
2023-08-15T08:54:12.616Z,19.19
2023-08-15T08:56:40.341Z,19.23
2023-08-15T08:59:06.970Z,18.52
2023-08-15T09:01:33.568Z,18.05
2023-08-15T09:04:00.134Z,17.83
2023-08-15T09:06:29.685Z,17.73
2023-08-15T09:08:58.518Z,17.67
2023-08-15T09:11:25.075Z,17.57
2023-08-15T09:13:51.631Z,17.49
2023-08-15T09:16:18.215Z,17.40
2023-08-15T09:18:44.776Z,17.36
2023-08-15T09:21:13.540Z,17.30
2023-08-15T09:23:41.712Z,17.29
2023-08-15T09:26:14.488Z,17.22
2023-08-15T09:28:42.118Z,17.20
2023-08-15T09:31:10.533Z,17.20
2023-08-15T09:33:39.921Z,17.16
2023-08-15T09:36:07.326Z,18.73
2023-08-15T09:38:33.858Z,18.83
2023-08-15T09:41:01.226Z,18.46
2023-08-15T09:43:27.878Z,18.58
2023-08-15T09:45:54.698Z,18.78
2023-08-15T09:48:21.287Z,18.83
2023-08-15T09:50:50.596Z,18.37
2023-08-15T09:53:17.183Z,17.94
2023-08-15T09:55:43.896Z,17.82
2023-08-15T09:58:10.571Z,17.75
2023-08-15T10:00:37.263Z,17.67
2023-08-15T10:03:09.926Z,17.62
2023-08-15T10:05:36.545Z,17.55
2023-08-15T10:08:03.137Z,17.48
2023-08-15T10:10:31.169Z,17.40
2023-08-15T10:12:57.691Z,17.40
2023-08-15T10:15:24.352Z,17.30
2023-08-15T10:17:51.249Z,17.33
2023-08-15T10:20:21.237Z,17.29
2023-08-15T10:22:58.837Z,17.23
2023-08-15T10:25:25.701Z,17.24
2023-08-15T10:27:53.168Z,17.18
2023-08-15T10:30:37.321Z,18.49
2023-08-15T10:33:24.222Z,19.20
2023-08-15T10:35:53.849Z,18.56
2023-08-15T10:38:21.455Z,18.69
2023-08-15T10:40:48.191Z,18.90
2023-08-15T10:43:15.460Z,18.87
2023-08-15T10:45:42.112Z,18.43
2023-08-15T10:48:09.396Z,18.11
2023-08-15T10:50:36.280Z,17.91
2023-08-15T10:53:06.138Z,17.75
2023-08-15T10:55:37.625Z,17.70
2023-08-15T10:58:05.321Z,17.61
2023-08-15T11:00:32.041Z,17.60
2023-08-15T11:02:58.666Z,17.57
2023-08-15T11:05:25.231Z,17.53
2023-08-15T11:07:51.799Z,17.50
2023-08-15T11:10:18.398Z,17.39
2023-08-15T11:12:50.893Z,17.33
2023-08-15T11:15:17.838Z,17.29
2023-08-15T11:17:47.898Z,17.22
2023-08-15T11:20:14.657Z,17.37
2023-08-15T11:22:41.365Z,19.10
2023-08-15T11:25:11.550Z,18.74
2023-08-15T11:27:46.356Z,18.48
2023-08-15T11:30:12.982Z,18.68
2023-08-15T11:32:39.689Z,18.85
2023-08-15T11:35:18.734Z,19.02
2023-08-15T11:37:45.344Z,18.63
2023-08-15T11:40:11.918Z,18.07
2023-08-15T11:42:38.760Z,17.85
2023-08-15T11:45:18.610Z,17.79
2023-08-15T11:48:03.878Z,17.65
2023-08-15T11:50:43.547Z,17.59
2023-08-15T11:53:17.314Z,17.57
2023-08-15T11:55:44.286Z,17.51
2023-08-15T11:58:23.532Z,17.48
2023-08-15T12:00:51.831Z,17.42
2023-08-15T12:03:18.388Z,17.38
2023-08-15T12:05:45.558Z,17.35
2023-08-15T12:11:37.203Z,19.07
2023-08-15T12:14:04.954Z,18.52
2023-08-15T12:16:31.868Z,18.61
2023-08-15T12:18:58.694Z,18.83
2023-08-15T12:21:25.306Z,19.01
2023-08-15T12:23:51.954Z,19.15
2023-08-15T12:26:18.581Z,19.13
2023-08-15T12:28:45.138Z,18.52
2023-08-15T12:31:11.868Z,18.15
2023-08-15T12:33:50.444Z,17.91
2023-08-15T12:36:17.074Z,17.79
2023-08-15T12:38:43.909Z,17.71
2023-08-15T12:41:10.624Z,17.66
2023-08-15T12:43:37.697Z,17.63
2023-08-15T12:46:04.435Z,17.55
2023-08-15T12:48:31.074Z,17.50
2023-08-15T12:50:57.840Z,17.48
2023-08-15T12:53:24.638Z,17.41
2023-08-15T12:55:51.280Z,17.39
2023-08-15T12:58:18.122Z,17.35
2023-08-15T13:00:44.773Z,17.30
2023-08-15T13:03:11.423Z,17.29
2023-08-15T13:05:38.017Z,17.25
2023-08-15T13:08:04.868Z,17.24
2023-08-15T13:10:31.412Z,17.21
2023-08-15T13:12:58.209Z,17.16
2023-08-15T13:15:25.548Z,17.36
2023-08-15T13:17:52.182Z,19.15
2023-08-15T13:20:18.812Z,18.68
2023-08-15T13:22:45.343Z,18.56
2023-08-15T13:25:11.985Z,18.73
2023-08-15T13:27:38.476Z,18.89
2023-08-15T13:30:05.396Z,19.03
2023-08-15T13:32:32.027Z,18.65
2023-08-15T13:34:58.596Z,18.20
2023-08-15T13:37:25.207Z,17.98
2023-08-15T13:39:54.732Z,17.83
2023-08-15T13:42:36.311Z,17.79
2023-08-15T13:45:08.660Z,17.77
2023-08-15T13:47:37.171Z,17.68
2023-08-15T13:50:04.326Z,17.65
2023-08-15T13:52:30.897Z,17.62
2023-08-15T13:54:57.490Z,17.57
2023-08-15T13:57:24.264Z,17.54
2023-08-15T13:59:51.012Z,17.52
2023-08-15T14:02:17.784Z,17.41
2023-08-15T14:04:44.328Z,17.34
2023-08-15T14:07:10.899Z,17.29
2023-08-15T14:09:37.415Z,17.31
2023-08-15T14:12:04.679Z,17.32
2023-08-15T14:14:31.286Z,17.47
2023-08-15T14:16:57.887Z,19.16
2023-08-15T14:19:24.523Z,18.56
2023-08-15T14:21:51.025Z,18.47
2023-08-15T14:24:17.661Z,18.63
2023-08-15T14:26:44.260Z,18.86
2023-08-15T14:29:10.891Z,18.63
2023-08-15T14:31:37.459Z,18.16
2023-08-15T14:34:05.098Z,17.88
2023-08-15T14:36:31.629Z,17.77
2023-08-15T14:38:58.372Z,17.69
2023-08-15T14:41:24.911Z,17.65
2023-08-15T14:43:51.522Z,17.59
2023-08-15T14:46:18.041Z,17.53
2023-08-15T14:48:44.633Z,17.51
2023-08-15T14:51:11.226Z,17.47
2023-08-15T14:53:37.768Z,17.40
2023-08-15T14:56:04.461Z,17.34
2023-08-15T14:58:31.055Z,17.43
2023-08-15T15:00:58.520Z,19.16
2023-08-15T15:03:25.094Z,18.77
2023-08-15T15:05:51.597Z,18.68
2023-08-15T15:08:18.179Z,18.78
2023-08-15T15:10:44.782Z,18.97
2023-08-15T15:13:11.324Z,19.10
2023-08-15T15:15:53.127Z,19.23
2023-08-15T15:18:20.152Z,18.96
2023-08-15T15:20:46.837Z,18.35
2023-08-15T15:23:13.444Z,18.09
2023-08-15T15:25:44.865Z,17.98
2023-08-15T15:28:11.374Z,17.89
2023-08-15T15:30:37.997Z,17.77
2023-08-15T15:33:04.635Z,17.69
2023-08-15T15:35:31.226Z,17.66
2023-08-15T15:37:57.820Z,17.59
2023-08-15T15:40:24.370Z,17.54
2023-08-15T15:42:50.911Z,17.50
2023-08-15T15:45:17.607Z,17.45
2023-08-15T15:47:44.297Z,17.35
2023-08-15T15:50:10.897Z,17.35
2023-08-15T15:52:37.440Z,18.39
2023-08-15T15:55:04.138Z,19.54
2023-08-15T15:57:30.667Z,18.63
2023-08-15T15:59:57.122Z,18.70
2023-08-15T16:02:24.043Z,18.84
2023-08-15T16:04:50.736Z,19.02
2023-08-15T16:07:17.682Z,19.20
2023-08-15T16:09:45.970Z,18.83
2023-08-15T16:12:12.549Z,18.34
2023-08-15T16:14:39.101Z,18.16
2023-08-15T16:17:05.681Z,17.94
2023-08-15T16:19:32.182Z,17.83
2023-08-15T16:21:58.823Z,17.78
2023-08-15T16:24:25.367Z,17.71
2023-08-15T16:26:51.927Z,17.64
2023-08-15T16:29:18.449Z,17.65
2023-08-15T16:31:45.047Z,17.55
2023-08-15T16:34:11.671Z,17.54
2023-08-15T16:36:38.239Z,17.47
2023-08-15T16:39:04.850Z,17.39
2023-08-15T16:41:31.512Z,17.39
2023-08-15T16:43:58.036Z,17.34
2023-08-15T16:46:24.600Z,18.66
2023-08-15T16:48:51.381Z,19.45
2023-08-15T16:51:17.893Z,18.54
2023-08-15T16:53:44.430Z,18.62
2023-08-15T16:56:11.049Z,18.81
2023-08-15T16:58:37.530Z,18.98
2023-08-15T17:01:04.148Z,19.14
2023-08-15T17:03:30.685Z,18.74
2023-08-15T17:05:57.243Z,18.22
2023-08-15T17:08:23.806Z,17.92
2023-08-15T17:10:50.328Z,17.88
2023-08-15T17:13:16.812Z,17.80
2023-08-15T17:15:43.334Z,17.74
2023-08-15T17:18:09.963Z,17.70
2023-08-15T17:20:36.506Z,17.59
2023-08-15T17:23:03.034Z,17.58
2023-08-15T17:25:29.586Z,17.51
2023-08-15T17:27:56.125Z,17.46
2023-08-15T17:30:22.669Z,17.39
2023-08-15T17:32:49.297Z,17.35
2023-08-15T17:35:15.881Z,17.33
2023-08-15T17:37:42.439Z,18.99
2023-08-15T17:40:09.148Z,19.22
2023-08-15T17:42:35.680Z,18.61
2023-08-15T17:45:02.652Z,18.75
2023-08-15T17:47:29.284Z,18.94
2023-08-15T17:49:56.313Z,19.16
2023-08-15T17:52:23.119Z,19.27
2023-08-15T17:54:49.925Z,19.21
2023-08-15T17:57:16.486Z,18.57
2023-08-15T17:59:43.032Z,18.17
2023-08-15T18:02:09.683Z,18.01
2023-08-15T18:04:36.276Z,17.93
2023-08-15T18:07:02.821Z,17.87
2023-08-15T18:09:29.946Z,17.79
2023-08-15T18:11:56.612Z,17.70
2023-08-15T18:14:23.220Z,17.63
2023-08-15T18:16:50.323Z,17.60
2023-08-15T18:19:21.032Z,17.55
2023-08-15T18:21:47.637Z,17.45
2023-08-15T18:24:14.200Z,17.40
2023-08-15T18:26:40.733Z,17.34
2023-08-15T18:29:07.307Z,17.33
2023-08-15T18:31:33.823Z,17.30
2023-08-15T18:34:00.335Z,18.55
2023-08-15T18:36:26.899Z,19.23
2023-08-15T18:38:53.497Z,18.53
2023-08-15T18:41:20.076Z,18.61
2023-08-15T18:43:46.677Z,18.82
2023-08-15T18:46:13.285Z,18.96
2023-08-15T18:48:40.225Z,18.92
2023-08-15T18:51:06.845Z,18.31
2023-08-15T18:53:33.469Z,18.05
2023-08-15T18:56:00.065Z,17.88
2023-08-15T18:58:26.879Z,17.82
2023-08-15T19:00:53.451Z,17.72
2023-08-15T19:03:20.192Z,17.69
2023-08-15T19:05:47.034Z,17.68
2023-08-15T19:08:14.223Z,17.59
2023-08-15T19:10:40.732Z,17.51
2023-08-15T19:13:07.289Z,17.49
2023-08-15T19:15:34.020Z,17.38
2023-08-15T19:18:00.739Z,17.39
2023-08-15T19:20:28.101Z,17.30
2023-08-15T19:22:54.683Z,17.94
2023-08-15T19:25:21.942Z,18.70
2023-08-15T19:27:50.248Z,18.30
2023-08-15T19:30:16.815Z,18.49
2023-08-15T19:32:43.471Z,18.71
2023-08-15T19:35:10.087Z,18.91
2023-08-15T19:37:38.888Z,19.04
2023-08-15T19:40:09.868Z,18.52
2023-08-15T19:42:41.372Z,18.07
2023-08-15T19:45:08.451Z,17.88
2023-08-15T19:47:35.143Z,17.83
2023-08-15T19:50:01.906Z,17.75
2023-08-15T19:52:28.411Z,17.70
2023-08-15T19:54:55.222Z,17.63
2023-08-15T19:57:21.779Z,17.56
2023-08-15T19:59:48.302Z,17.54
2023-08-15T20:02:15.140Z,17.48
2023-08-15T20:04:41.899Z,17.48
2023-08-15T20:07:08.474Z,17.39
2023-08-15T20:09:35.055Z,17.33
2023-08-15T20:12:01.536Z,17.40
2023-08-15T20:14:29.022Z,19.11
2023-08-15T20:16:55.749Z,18.75
2023-08-15T20:19:22.464Z,18.54
2023-08-15T20:21:49.413Z,18.67
2023-08-15T20:24:16.063Z,18.92
2023-08-15T20:26:42.681Z,19.07
2023-08-15T20:29:09.275Z,19.05
2023-08-15T20:31:35.928Z,18.47
2023-08-15T20:34:02.470Z,18.06
2023-08-15T20:36:29.010Z,17.92
2023-08-15T20:38:55.631Z,17.85
2023-08-15T20:41:22.372Z,17.81
2023-08-15T20:43:48.972Z,17.71
2023-08-15T20:46:15.598Z,17.63
2023-08-15T20:48:42.134Z,17.57
2023-08-15T20:51:08.709Z,17.56
2023-08-15T20:53:35.247Z,17.48
2023-08-15T20:56:01.871Z,17.45
2023-08-15T20:58:28.661Z,17.36
2023-08-15T21:00:56.142Z,17.37
2023-08-15T21:03:23.530Z,17.28
2023-08-15T21:05:50.133Z,17.29
2023-08-15T21:08:16.655Z,17.30
2023-08-15T21:10:43.121Z,17.20
2023-08-15T21:13:09.664Z,17.92
2023-08-15T21:15:36.247Z,19.35
2023-08-15T21:18:02.818Z,18.51
2023-08-15T21:20:29.481Z,18.51
2023-08-15T21:22:55.985Z,18.71
2023-08-15T21:25:22.476Z,18.87
2023-08-15T21:27:49.047Z,18.62
2023-08-15T21:30:15.662Z,18.14
2023-08-15T21:32:42.689Z,17.88
2023-08-15T21:35:09.317Z,17.82
2023-08-15T21:37:35.848Z,17.75
2023-08-15T21:40:02.452Z,17.65
2023-08-15T21:42:32.104Z,17.62
2023-08-15T21:45:00.414Z,17.59
2023-08-15T21:47:26.977Z,17.56
2023-08-15T21:49:54.728Z,17.50
2023-08-15T21:52:21.517Z,17.41
2023-08-15T21:54:48.145Z,17.43
2023-08-15T21:57:14.655Z,17.38
2023-08-15T21:59:41.324Z,18.32
2023-08-15T22:02:07.977Z,19.11
2023-08-15T22:04:34.691Z,18.51
2023-08-15T22:07:01.265Z,18.69
2023-08-15T22:09:27.852Z,18.84
2023-08-15T22:11:54.334Z,19.05
2023-08-15T22:14:22.857Z,19.17
2023-08-15T22:16:49.603Z,18.71
2023-08-15T22:19:16.374Z,18.21
2023-08-15T22:21:43.010Z,18.06
2023-08-15T22:24:09.557Z,17.92
2023-08-15T22:26:36.603Z,17.85
2023-08-15T22:29:03.873Z,17.79
2023-08-15T22:31:30.448Z,17.66
2023-08-15T22:33:57.005Z,17.63
2023-08-15T22:36:23.550Z,17.57
2023-08-15T22:38:50.139Z,17.53
2023-08-15T22:41:16.691Z,17.43
2023-08-15T22:43:43.307Z,17.48
2023-08-15T22:46:09.930Z,17.41
2023-08-15T22:48:36.753Z,17.37
2023-08-15T22:51:04.026Z,18.36
2023-08-15T22:53:30.589Z,19.16
2023-08-15T22:56:03.776Z,18.61
2023-08-15T22:58:30.372Z,18.76
2023-08-15T23:00:57.189Z,19.03
2023-08-15T23:03:26.836Z,19.20
2023-08-15T23:05:53.425Z,19.04
2023-08-15T23:08:19.898Z,18.42
2023-08-15T23:10:55.555Z,18.14
2023-08-15T23:13:22.145Z,18.07
2023-08-15T23:15:48.778Z,17.92
2023-08-15T23:18:15.442Z,17.90
2023-08-15T23:20:41.969Z,17.81
2023-08-15T23:23:08.465Z,17.81
2023-08-15T23:25:35.007Z,17.83
2023-08-15T23:28:01.556Z,17.69
2023-08-15T23:30:28.099Z,17.66
2023-08-15T23:32:54.654Z,17.58
2023-08-15T23:35:21.247Z,17.51
2023-08-15T23:37:47.813Z,17.51
2023-08-15T23:40:14.356Z,17.44
2023-08-15T23:42:41.162Z,17.40
2023-08-15T23:45:07.997Z,17.40
2023-08-15T23:47:34.689Z,17.48
2023-08-15T23:50:04.553Z,19.05
2023-08-15T23:52:30.998Z,18.37
2023-08-15T23:54:58.119Z,18.48
2023-08-15T23:57:25.055Z,18.70
2023-08-15T23:59:52.182Z,18.86
